CYBK

Details ICAO CYBK (YBK)
Name BAKER LAKE
Region Canada
Timezone America/Rankin_Inlet (UTC-6.0)
Plans Departing 5
Arriving 8
Stats Elevation 59 ft / 18 m (AMSL)
Location 64.298889° -96.077777°
Runways 1
Magnetic Variation 2.541° W
Sunrise 2017-12-15 16:17:17 UTC / 2017-12-15 10:17:17 Local
Sunset 2017-12-15 20:24:41 UTC / 2017-12-15 14:24:41 Local
Advertisement - Login to hide

Runways

ID Width Length Bearing (true) Bearing (mag) Surface Threshold Offset Overrun Length
16T 100 ft / 30 m 4,262 ft / 1,299 m 161.96° 164.50° Gravel 0 ft / 0 m 0 ft / 0 m
34T 100 ft / 30 m 4,262 ft / 1,299 m 341.97° 344.51° Gravel 0 ft / 0 m 0 ft / 0 m

Map

Weather


0- 5 10 15 20 25 30 35+ Temperature / ° C

Clouds and Precipitation
Forecast for 2017-12-15 18:00 UTC. Updated an hour ago

Ground ~20,000 ft ~40,000 ft Winds

METAR

CYBK 151600Z 33008KT 20SM SCT010 M30/M33 A2996 RMK SC3 SLP152

TAF

TAF AMD CYBK 151226Z 1512/1524 31015KT P6SM FEW005 TEMPO 1512/1518 3SM IC BR BKN005 FM151800 31015KT 6SM -SN FEW006 BKN012 TEMPO 1518/1524 P6SM NSW SCT012 BKN025 RMK NXT FCST BY 151800Z

Frequencies

Unicom 122.10 MHz ARPT RDO
Warning: Do not use this data for real-world aviation or navigation. No guarantee of current accuracy is given.